createdAt,value
2023-03-12T00:00:27.275Z,88.84
2023-03-12T00:00:59.969Z,88.62
2023-03-12T00:01:32.646Z,88.52
2023-03-12T00:02:05.326Z,88.52
2023-03-12T00:02:38.127Z,88.52
2023-03-12T00:03:10.856Z,88.42
2023-03-12T00:03:43.688Z,88.42
2023-03-12T00:04:16.387Z,88.73
2023-03-12T00:04:49.053Z,89.04
2023-03-12T00:05:21.736Z,89.15
2023-03-12T00:05:54.437Z,89.04
2023-03-12T00:06:27.108Z,88.94
2023-03-12T00:06:58.198Z,89.04
2023-03-12T00:07:30.868Z,89.25
2023-03-12T00:08:03.566Z,89.47
2023-03-12T00:08:36.257Z,89.36
2023-03-12T00:09:08.920Z,89.36
2023-03-12T00:09:41.603Z,89.57
2023-03-12T00:10:14.271Z,89.67
2023-03-12T00:10:46.945Z,89.88
2023-03-12T00:11:19.614Z,89.67
2023-03-12T00:11:52.304Z,89.47
2023-03-12T00:12:24.969Z,89.47
2023-03-12T00:12:57.664Z,89.15
2023-03-12T00:13:30.336Z,88.94
2023-03-12T00:14:03.029Z,89.04
2023-03-12T00:14:35.687Z,89.04
2023-03-12T00:15:08.372Z,89.04
2023-03-12T00:15:41.082Z,88.94
2023-03-12T00:16:13.881Z,89.25
2023-03-12T00:16:46.556Z,89.47
2023-03-12T00:17:19.227Z,89.57
2023-03-12T00:17:52.036Z,89.67
2023-03-12T00:18:24.693Z,89.78
2023-03-12T00:18:57.337Z,89.67
2023-03-12T00:19:30.018Z,89.15
2023-03-12T00:20:02.677Z,88.94
2023-03-12T00:20:35.337Z,88.73
2023-03-12T00:21:08.013Z,88.62
2023-03-12T00:21:40.677Z,88.62
2023-03-12T00:22:13.349Z,88.84
2023-03-12T00:22:46.024Z,89.04
2023-03-12T00:23:18.693Z,89.15
2023-03-12T00:23:51.368Z,88.84
2023-03-12T00:24:24.032Z,88.42
2023-03-12T00:24:56.719Z,88.31
2023-03-12T00:25:29.392Z,88.31
2023-03-12T00:26:02.063Z,88.42
2023-03-12T00:26:34.764Z,88.62
2023-03-12T00:27:07.423Z,88.62
2023-03-12T00:27:40.082Z,88.73
2023-03-12T00:28:12.772Z,88.73
2023-03-12T00:28:45.462Z,88.94
2023-03-12T00:29:18.117Z,88.84
2023-03-12T00:29:50.813Z,88.84
2023-03-12T00:30:23.490Z,88.84
2023-03-12T00:30:57.318Z,88.73
2023-03-12T00:31:23.546Z,88.94
2023-03-12T00:31:56.236Z,89.04
2023-03-12T00:32:28.935Z,89.36
2023-03-12T00:33:01.592Z,89.47
2023-03-12T00:33:34.293Z,89.47
2023-03-12T00:34:06.934Z,89.36
2023-03-12T00:34:39.613Z,88.94
2023-03-12T00:35:12.287Z,88.62
2023-03-12T00:35:45.007Z,88.52
2023-03-12T00:36:17.644Z,88.62
2023-03-12T00:36:50.313Z,88.62
2023-03-12T00:37:23.010Z,88.84
2023-03-12T00:37:55.662Z,88.94
2023-03-12T00:38:28.335Z,89.04
2023-03-12T00:39:01.017Z,88.62
2023-03-12T00:39:33.686Z,88.31
2023-03-12T00:40:06.357Z,88.31
2023-03-12T00:40:39.024Z,88.31
2023-03-12T00:41:11.695Z,88.10
2023-03-12T00:41:44.355Z,87.85
2023-03-12T00:42:17.046Z,87.85
2023-03-12T00:42:49.714Z,87.96
2023-03-12T00:43:22.388Z,88.06
2023-03-12T00:43:55.058Z,88.48
2023-03-12T00:44:27.721Z,88.37
2023-03-12T00:45:00.390Z,88.59
2023-03-12T00:45:33.083Z,88.79
2023-03-12T00:46:05.744Z,88.79
2023-03-12T00:46:38.556Z,88.69
2023-03-12T00:47:11.229Z,88.59
2023-03-12T00:47:43.886Z,88.17
2023-03-12T00:48:16.576Z,87.74
2023-03-12T00:48:49.286Z,87.64
2023-03-12T00:49:21.924Z,87.85
2023-03-12T00:49:54.594Z,87.74
2023-03-12T00:50:27.282Z,87.54
2023-03-12T00:50:59.977Z,87.33
2023-03-12T00:51:32.646Z,87.54
2023-03-12T00:52:05.341Z,87.85
2023-03-12T00:52:37.989Z,87.96
2023-03-12T00:53:10.670Z,87.74
2023-03-12T00:53:43.338Z,87.74
2023-03-12T00:54:16.018Z,87.85
2023-03-12T00:54:48.683Z,87.92
2023-03-12T00:55:21.383Z,87.71
2023-03-12T00:55:54.052Z,87.71
2023-03-12T00:56:26.723Z,88.02
2023-03-12T00:56:59.392Z,88.02
2023-03-12T00:57:32.059Z,87.60
2023-03-12T00:58:04.742Z,86.98
2023-03-12T00:58:37.446Z,86.77
2023-03-12T00:59:10.087Z,86.45
2023-03-12T00:59:42.773Z,86.45
2023-03-12T01:00:15.433Z,86.66
2023-03-12T01:00:48.143Z,86.77
2023-03-12T01:01:20.922Z,86.98
2023-03-12T01:01:53.551Z,86.98
2023-03-12T01:02:26.222Z,86.98
2023-03-12T01:02:58.910Z,87.29
2023-03-12T01:03:31.573Z,87.29
2023-03-12T01:04:04.438Z,86.98
2023-03-12T01:04:37.086Z,86.55
2023-03-12T01:05:09.766Z,86.24
2023-03-12T01:05:42.438Z,86.04
2023-03-12T01:06:15.121Z,86.04
2023-03-12T01:06:47.769Z,86.14
2023-03-12T01:07:20.449Z,86.14
2023-03-12T01:07:53.148Z,86.35
2023-03-12T01:08:25.817Z,86.66
2023-03-12T01:08:58.487Z,87.08
2023-03-12T01:09:31.170Z,87.39
2023-03-12T01:10:03.945Z,87.08
2023-03-12T01:10:36.593Z,86.77
2023-03-12T01:11:09.260Z,86.45
2023-03-12T01:11:41.926Z,86.66
2023-03-12T01:12:14.606Z,86.77
2023-03-12T01:12:47.300Z,86.98
2023-03-12T01:13:20.002Z,86.98
2023-03-12T01:13:52.640Z,86.66
2023-03-12T01:14:25.312Z,86.87
2023-03-12T01:14:57.983Z,86.87
2023-03-12T01:15:30.656Z,86.35
2023-03-12T01:16:03.400Z,86.24
2023-03-12T01:16:36.097Z,86.66
2023-03-12T01:17:08.754Z,86.98
2023-03-12T01:17:41.438Z,86.55
2023-03-12T01:18:14.108Z,86.45
2023-03-12T01:18:46.780Z,86.35
2023-03-12T01:19:19.481Z,86.14
2023-03-12T01:19:52.121Z,86.35
2023-03-12T01:20:24.791Z,86.55
2023-03-12T01:20:57.539Z,86.66
2023-03-12T01:21:30.210Z,86.77
2023-03-12T01:22:02.870Z,86.87
2023-03-12T01:22:35.542Z,86.35
2023-03-12T01:23:08.241Z,86.35
2023-03-12T01:23:40.961Z,86.45
2023-03-12T01:24:13.642Z,86.24
2023-03-12T01:24:46.313Z,86.24
2023-03-12T01:25:18.977Z,86.14
2023-03-12T01:25:51.637Z,86.14
2023-03-12T01:26:24.313Z,86.24
2023-03-12T01:26:56.997Z,86.24
2023-03-12T01:27:29.672Z,86.24
2023-03-12T01:28:02.361Z,86.04
2023-03-12T01:28:35.043Z,85.61
2023-03-12T01:29:07.709Z,85.61
2023-03-12T01:29:40.385Z,85.51
2023-03-12T01:30:13.085Z,85.41
2023-03-12T01:30:45.753Z,85.72
2023-03-12T01:31:18.456Z,85.82
2023-03-12T01:31:51.258Z,85.99
2023-03-12T01:32:23.988Z,86.24
2023-03-12T01:32:56.660Z,86.14
2023-03-12T01:33:29.318Z,86.41
2023-03-12T01:34:02.003Z,86.20
2023-03-12T01:34:34.692Z,86.20
2023-03-12T01:35:07.412Z,85.47
2023-03-12T01:35:40.235Z,84.53
2023-03-12T01:36:13.015Z,84.32
2023-03-12T01:36:45.656Z,84.53
2023-03-12T01:37:18.339Z,85.05
2023-03-12T01:37:51.011Z,85.36
2023-03-12T01:38:23.672Z,85.36
2023-03-12T01:38:56.350Z,85.05
2023-03-12T01:39:29.016Z,84.74
2023-03-12T01:40:01.706Z,84.74
2023-03-12T01:40:34.359Z,84.95
2023-03-12T01:41:07.033Z,85.47
2023-03-12T01:41:39.694Z,85.68
2023-03-12T01:42:12.367Z,85.58
2023-03-12T01:42:45.050Z,85.26
2023-03-12T01:43:17.727Z,85.05
2023-03-12T01:43:50.402Z,84.95
2023-03-12T01:44:23.072Z,84.84
2023-03-12T01:44:55.762Z,84.95
2023-03-12T01:45:28.498Z,84.95
2023-03-12T01:46:01.266Z,85.05
2023-03-12T01:46:33.924Z,85.68
2023-03-12T01:47:06.602Z,85.26
2023-03-12T01:47:39.282Z,84.63
2023-03-12T01:48:11.972Z,84.42
2023-03-12T01:48:44.651Z,84.59
2023-03-12T01:49:17.350Z,85.36
2023-03-12T01:49:50.047Z,85.47
2023-03-12T01:50:22.677Z,85.47
2023-03-12T01:50:55.358Z,85.58
2023-03-12T01:51:28.031Z,85.74
2023-03-12T01:52:00.721Z,85.68
2023-03-12T01:52:33.392Z,85.64
2023-03-12T01:53:06.082Z,85.96
2023-03-12T01:53:38.750Z,85.85
2023-03-12T01:54:11.428Z,85.53
2023-03-12T01:54:44.094Z,85.33
2023-03-12T01:55:16.759Z,85.43
2023-03-12T01:55:49.442Z,85.43
2023-03-12T01:56:22.104Z,85.43
2023-03-12T01:56:54.776Z,85.53
2023-03-12T01:57:27.445Z,85.64
2023-03-12T01:58:00.134Z,85.33
2023-03-12T01:58:32.800Z,85.12
2023-03-12T01:59:05.484Z,85.53
2023-03-12T01:59:38.154Z,86.16
2023-03-12T02:00:10.829Z,86.27
2023-03-12T02:00:43.570Z,86.47
2023-03-12T02:01:16.230Z,86.06
2023-03-12T02:01:48.932Z,85.74
2023-03-12T02:02:21.638Z,85.43
2023-03-12T02:02:54.297Z,85.12
2023-03-12T02:03:26.972Z,85.01
2023-03-12T02:03:59.740Z,84.59
2023-03-12T02:04:32.390Z,84.70
2023-03-12T02:05:05.087Z,85.01
2023-03-12T02:05:37.740Z,85.22
2023-03-12T02:06:10.399Z,85.64
2023-03-12T02:06:43.066Z,85.74
2023-03-12T02:07:15.744Z,85.74
2023-03-12T02:07:48.418Z,85.85
2023-03-12T02:08:21.089Z,85.64
2023-03-12T02:08:53.770Z,85.33
2023-03-12T02:09:26.454Z,85.12
2023-03-12T02:09:59.111Z,85.12
2023-03-12T02:10:31.785Z,85.22
2023-03-12T02:11:04.470Z,85.74
2023-03-12T02:11:37.122Z,85.96
2023-03-12T02:12:09.796Z,85.96
2023-03-12T02:12:42.478Z,85.85
2023-03-12T02:13:15.169Z,85.89
2023-03-12T02:13:47.842Z,85.78
2023-03-12T02:14:20.514Z,85.47
2023-03-12T02:14:53.212Z,85.47
2023-03-12T02:15:25.881Z,85.36
2023-03-12T02:15:58.565Z,85.36
2023-03-12T02:16:31.449Z,85.58
2023-03-12T02:17:04.128Z,85.78
2023-03-12T02:17:36.805Z,86.31
2023-03-12T02:18:09.523Z,86.41
2023-03-12T02:18:42.193Z,86.31
2023-03-12T02:19:14.872Z,86.20
2023-03-12T02:19:47.566Z,86.41
2023-03-12T02:20:20.246Z,86.62
2023-03-12T02:20:52.908Z,86.72
2023-03-12T02:21:25.559Z,86.72
2023-03-12T02:21:58.233Z,87.04
2023-03-12T02:22:30.902Z,87.04
2023-03-12T02:23:03.619Z,86.93
2023-03-12T02:23:36.281Z,86.72
2023-03-12T02:24:08.974Z,86.72
2023-03-12T02:24:41.639Z,86.72
2023-03-12T02:25:14.313Z,86.62
2023-03-12T02:25:46.976Z,86.41
2023-03-12T02:26:19.643Z,86.31
2023-03-12T02:26:52.314Z,86.31
2023-03-12T02:27:25.002Z,86.41
2023-03-12T02:27:57.673Z,86.77
2023-03-12T02:28:30.453Z,86.98
2023-03-12T02:29:03.123Z,87.18
2023-03-12T02:29:35.790Z,87.39
2023-03-12T02:30:08.462Z,87.60
2023-03-12T02:30:41.138Z,87.92
2023-03-12T02:31:13.808Z,87.81
2023-03-12T02:31:46.550Z,87.29
2023-03-12T02:32:19.296Z,86.98
2023-03-12T02:32:52.116Z,86.77
2023-03-12T02:33:24.793Z,86.87
2023-03-12T02:33:57.472Z,86.98
2023-03-12T02:34:30.139Z,86.87
2023-03-12T02:35:02.809Z,86.77
2023-03-12T02:35:35.554Z,86.77
2023-03-12T02:36:08.306Z,86.87
2023-03-12T02:36:40.934Z,87.08
2023-03-12T02:37:12.025Z,87.29
2023-03-12T02:37:44.697Z,87.39
2023-03-12T02:38:17.393Z,87.08
2023-03-12T02:38:50.054Z,86.87
2023-03-12T02:39:22.714Z,86.87
2023-03-12T02:39:55.390Z,86.98
2023-03-12T02:40:28.067Z,87.39
2023-03-12T02:41:00.740Z,87.39
2023-03-12T02:41:33.436Z,87.29
2023-03-12T02:42:06.097Z,87.29
2023-03-12T02:42:38.770Z,87.39
2023-03-12T02:43:11.444Z,87.50
2023-03-12T02:43:44.113Z,87.64
2023-03-12T02:44:16.788Z,87.54
2023-03-12T02:44:49.467Z,87.54
2023-03-12T02:45:22.132Z,87.64
2023-03-12T02:45:54.884Z,87.64
2023-03-12T02:46:27.534Z,87.54
2023-03-12T02:47:00.193Z,87.54
2023-03-12T02:47:31.282Z,87.74
2023-03-12T02:48:03.963Z,87.74
2023-03-12T02:48:36.643Z,87.64
2023-03-12T02:49:09.326Z,87.74
2023-03-12T02:49:41.998Z,87.85
2023-03-12T02:50:14.694Z,87.74
2023-03-12T02:50:47.383Z,87.96
2023-03-12T02:51:20.056Z,87.96
2023-03-12T02:51:52.724Z,87.96
2023-03-12T02:52:25.391Z,88.06
2023-03-12T02:52:58.075Z,88.17
2023-03-12T02:53:30.764Z,88.37
2023-03-12T02:54:03.424Z,88.48
2023-03-12T02:54:36.097Z,88.69
2023-03-12T02:55:08.768Z,88.69
2023-03-12T02:55:41.442Z,88.69
2023-03-12T02:56:14.112Z,88.69
2023-03-12T02:56:46.795Z,88.79
2023-03-12T02:57:19.640Z,88.90
2023-03-12T02:57:52.341Z,89.11
2023-03-12T02:58:25.010Z,89.11
2023-03-12T02:58:57.694Z,89.22
2023-03-12T02:59:30.430Z,89.22
2023-03-12T03:00:03.096Z,89.22
2023-03-12T03:00:34.166Z,89.22
2023-03-12T03:01:06.868Z,89.22
2023-03-12T03:01:39.631Z,89.47
2023-03-12T03:02:12.285Z,89.57
2023-03-12T03:02:44.961Z,89.57
2023-03-12T03:03:17.649Z,89.36
2023-03-12T03:03:50.348Z,89.36
2023-03-12T03:04:23.078Z,89.25
2023-03-12T03:04:55.729Z,89.25
2023-03-12T03:05:28.397Z,89.25
2023-03-12T03:06:01.100Z,89.25
2023-03-12T03:06:33.774Z,89.36
2023-03-12T03:07:06.427Z,89.25
2023-03-12T03:07:39.091Z,89.25
2023-03-12T03:08:11.781Z,89.57
2023-03-12T03:08:44.445Z,89.67
2023-03-12T03:09:17.115Z,89.57
2023-03-12T03:09:49.791Z,89.47
2023-03-12T03:10:22.463Z,89.47
2023-03-12T03:10:55.147Z,89.47
2023-03-12T03:11:27.809Z,89.47
2023-03-12T03:12:00.487Z,89.47
2023-03-12T03:12:33.159Z,89.15
2023-03-12T03:13:05.865Z,89.04
2023-03-12T03:13:38.523Z,89.25
2023-03-12T03:14:11.189Z,89.36
2023-03-12T03:14:43.852Z,89.25
2023-03-12T03:15:16.524Z,89.36
2023-03-12T03:15:49.233Z,89.47
2023-03-12T03:16:21.951Z,89.57
2023-03-12T03:16:54.588Z,89.67
2023-03-12T03:17:27.261Z,89.78
2023-03-12T03:17:59.972Z,89.78
2023-03-12T03:18:32.644Z,89.88
2023-03-12T03:19:05.297Z,89.98
2023-03-12T03:19:37.978Z,90.20
2023-03-12T03:20:10.647Z,90.30
2023-03-12T03:20:43.319Z,90.30
2023-03-12T03:21:16.010Z,90.41
2023-03-12T03:21:48.660Z,90.51
2023-03-12T03:22:21.333Z,90.30
2023-03-12T03:22:54.030Z,89.98
2023-03-12T03:23:26.686Z,89.98
2023-03-12T03:23:59.362Z,90.30
2023-03-12T03:24:32.038Z,90.55
2023-03-12T03:25:04.712Z,90.61
2023-03-12T03:25:37.380Z,90.61
2023-03-12T03:26:10.052Z,90.51
2023-03-12T03:26:42.729Z,90.34
2023-03-12T03:27:15.383Z,90.34
2023-03-12T03:27:48.065Z,90.45
2023-03-12T03:28:20.738Z,90.45
2023-03-12T03:28:53.401Z,90.55
2023-03-12T03:29:26.072Z,90.55
2023-03-12T03:29:58.761Z,90.55
2023-03-12T03:30:31.415Z,90.45
2023-03-12T03:31:04.133Z,90.23
2023-03-12T03:31:36.789Z,90.23
2023-03-12T03:32:09.465Z,90.34
2023-03-12T03:32:42.220Z,90.34
2023-03-12T03:33:14.921Z,90.45
2023-03-12T03:33:47.589Z,90.55
2023-03-12T03:34:20.279Z,90.76
2023-03-12T03:34:52.946Z,90.76
2023-03-12T03:35:25.680Z,90.76
2023-03-12T03:35:58.405Z,90.76
2023-03-12T03:36:31.137Z,91.08
2023-03-12T03:37:03.797Z,90.97
2023-03-12T03:37:36.480Z,90.87
2023-03-12T03:38:09.182Z,90.87
2023-03-12T03:38:41.848Z,90.87
2023-03-12T03:39:14.524Z,90.76
2023-03-12T03:39:47.183Z,90.76
2023-03-12T03:40:19.848Z,90.76
2023-03-12T03:40:52.519Z,90.87
2023-03-12T03:41:25.197Z,91.08
2023-03-12T03:41:57.872Z,90.97
2023-03-12T03:42:30.544Z,91.08
2023-03-12T03:43:03.217Z,91.08
2023-03-12T03:43:35.877Z,90.97
2023-03-12T03:44:08.546Z,91.08
2023-03-12T03:44:41.223Z,91.18
2023-03-12T03:45:13.894Z,91.18
2023-03-12T03:45:46.727Z,91.28
2023-03-12T03:46:19.581Z,91.08
2023-03-12T03:46:52.244Z,90.97
2023-03-12T03:47:24.910Z,90.87
2023-03-12T03:47:56.058Z,90.80
2023-03-12T03:48:28.730Z,90.76
2023-03-12T03:49:01.395Z,90.87
2023-03-12T03:49:34.097Z,90.76
2023-03-12T03:50:06.745Z,90.87
2023-03-12T03:50:39.410Z,91.08
2023-03-12T03:51:12.082Z,91.33
2023-03-12T03:51:44.777Z,91.28
2023-03-12T03:52:17.485Z,91.33
2023-03-12T03:52:50.157Z,91.01
2023-03-12T03:53:22.838Z,90.91
2023-03-12T03:53:55.511Z,91.01
2023-03-12T03:54:28.204Z,91.22
2023-03-12T03:55:00.874Z,91.33
2023-03-12T03:55:33.561Z,91.43
2023-03-12T03:56:06.223Z,91.33
2023-03-12T03:56:38.903Z,91.12
2023-03-12T03:57:11.582Z,91.01
2023-03-12T03:57:44.268Z,91.12
2023-03-12T03:58:16.936Z,91.33
2023-03-12T03:58:49.645Z,91.43
2023-03-12T03:59:22.276Z,91.64
2023-03-12T03:59:54.939Z,91.75
2023-03-12T04:00:27.607Z,91.53
2023-03-12T04:01:00.276Z,91.53
2023-03-12T04:01:32.948Z,91.64
2023-03-12T04:02:05.628Z,91.64
2023-03-12T04:02:38.287Z,91.75
2023-03-12T04:03:11.016Z,91.85
2023-03-12T04:03:43.760Z,91.85
2023-03-12T04:04:16.397Z,91.96
2023-03-12T04:04:49.074Z,92.16
2023-03-12T04:05:21.825Z,92.06
2023-03-12T04:05:54.524Z,92.06
2023-03-12T04:06:27.283Z,91.85
2023-03-12T04:06:59.947Z,91.64
2023-03-12T04:07:32.583Z,91.64
2023-03-12T04:08:05.266Z,91.64
2023-03-12T04:08:37.950Z,91.75
2023-03-12T04:09:10.628Z,91.85
2023-03-12T04:09:43.299Z,91.96
2023-03-12T04:10:15.983Z,92.06
2023-03-12T04:10:48.660Z,92.27
2023-03-12T04:11:21.320Z,92.27
2023-03-12T04:11:53.997Z,92.38
2023-03-12T04:12:26.813Z,92.48
2023-03-12T04:12:57.791Z,92.48
2023-03-12T04:13:30.458Z,92.48
2023-03-12T04:14:03.134Z,92.58
2023-03-12T04:14:35.804Z,92.58
2023-03-12T04:15:08.480Z,92.48
2023-03-12T04:15:41.163Z,92.27
2023-03-12T04:16:13.898Z,92.27
2023-03-12T04:16:46.589Z,92.38
2023-03-12T04:17:19.246Z,92.48
2023-03-12T04:17:52.020Z,92.58
2023-03-12T04:18:24.798Z,92.58
2023-03-12T04:18:57.468Z,92.63
2023-03-12T04:19:30.131Z,92.73
2023-03-12T04:20:02.808Z,92.83
2023-03-12T04:20:35.483Z,92.83
2023-03-12T04:21:08.245Z,92.94
2023-03-12T04:21:40.884Z,92.94
2023-03-12T04:22:13.581Z,93.05
2023-03-12T04:22:46.256Z,93.05
2023-03-12T04:23:18.916Z,93.05
2023-03-12T04:23:51.623Z,93.15
2023-03-12T04:24:24.269Z,93.15
2023-03-12T04:24:56.936Z,93.26
2023-03-12T04:25:29.597Z,93.26
2023-03-12T04:26:02.262Z,93.36
2023-03-12T04:26:34.935Z,93.47
2023-03-12T04:27:07.600Z,93.57
2023-03-12T04:27:40.274Z,93.68
2023-03-12T04:28:12.978Z,93.78
2023-03-12T04:28:45.639Z,93.78
2023-03-12T04:29:18.293Z,93.68
2023-03-12T04:29:50.963Z,93.57
2023-03-12T04:30:23.626Z,93.47
2023-03-12T04:30:56.352Z,93.36
2023-03-12T04:31:29.105Z,93.26
2023-03-12T04:32:01.742Z,93.15
2023-03-12T04:32:34.432Z,92.94
2023-03-12T04:33:07.120Z,92.73
2023-03-12T04:33:39.804Z,92.83
2023-03-12T04:34:14.407Z,92.94
2023-03-12T04:34:40.756Z,92.94
2023-03-12T04:35:13.428Z,92.94
2023-03-12T04:35:46.115Z,93.05
2023-03-12T04:36:18.782Z,93.15
2023-03-12T04:36:51.458Z,93.26
2023-03-12T04:37:24.157Z,93.36
2023-03-12T04:37:56.817Z,93.36
2023-03-12T04:38:29.487Z,93.36
2023-03-12T04:39:02.152Z,93.47
2023-03-12T04:39:34.819Z,93.47
2023-03-12T04:40:07.476Z,93.47
2023-03-12T04:40:40.147Z,93.47
2023-03-12T04:41:12.814Z,93.57
2023-03-12T04:41:45.488Z,93.68
2023-03-12T04:42:18.157Z,93.68
2023-03-12T04:42:50.838Z,93.68
2023-03-12T04:43:23.501Z,93.68
2023-03-12T04:43:56.168Z,93.68
2023-03-12T04:44:28.839Z,93.47
2023-03-12T04:45:01.500Z,93.15
2023-03-12T04:45:34.164Z,93.15
2023-03-12T04:46:06.843Z,93.15
2023-03-12T04:46:39.535Z,93.15
2023-03-12T04:47:12.182Z,93.15
2023-03-12T04:47:44.870Z,93.15
2023-03-12T04:48:17.530Z,93.26
2023-03-12T04:48:50.202Z,93.26
2023-03-12T04:49:22.872Z,93.26
2023-03-12T04:49:53.965Z,93.26
2023-03-12T04:50:26.629Z,93.26
2023-03-12T04:50:59.295Z,93.26
2023-03-12T04:51:31.962Z,93.26
2023-03-12T04:52:04.641Z,93.26
2023-03-12T04:52:37.327Z,93.36
2023-03-12T04:53:10.070Z,93.47
2023-03-12T04:53:42.751Z,93.57
2023-03-12T04:54:15.392Z,93.68
2023-03-12T04:54:48.221Z,93.68
2023-03-12T04:55:20.861Z,93.78
2023-03-12T04:55:53.514Z,93.78
2023-03-12T04:56:26.229Z,93.88
2023-03-12T04:56:58.880Z,93.88
2023-03-12T04:57:31.547Z,93.78
2023-03-12T04:58:04.242Z,93.78
2023-03-12T04:58:36.899Z,93.88
2023-03-12T04:59:09.592Z,93.88
2023-03-12T04:59:42.269Z,93.99
2023-03-12T05:00:14.943Z,93.99
2023-03-12T05:00:47.614Z,94.10
2023-03-12T05:01:20.274Z,94.10
2023-03-12T05:01:52.959Z,94.10
2023-03-12T05:02:25.617Z,94.20
2023-03-12T05:02:58.351Z,94.35
2023-03-12T05:03:31.053Z,94.31
2023-03-12T05:04:03.781Z,94.45
2023-03-12T05:04:36.432Z,94.62
2023-03-12T05:05:09.104Z,94.67
2023-03-12T05:05:41.771Z,94.77
2023-03-12T05:06:14.447Z,94.87
2023-03-12T05:06:47.114Z,94.87
2023-03-12T05:07:19.804Z,94.98
2023-03-12T05:07:52.511Z,94.98
2023-03-12T05:08:25.152Z,95.08
2023-03-12T05:08:57.889Z,95.19
2023-03-12T05:09:30.551Z,95.19
2023-03-12T05:10:03.220Z,95.29
2023-03-12T05:10:35.896Z,95.29
2023-03-12T05:11:08.575Z,95.29
2023-03-12T05:11:41.228Z,95.40
2023-03-12T05:12:13.898Z,95.40
2023-03-12T05:12:46.571Z,95.40
2023-03-12T05:13:19.245Z,95.50
2023-03-12T05:13:51.903Z,95.50
2023-03-12T05:14:24.592Z,95.50
2023-03-12T05:14:57.256Z,95.40
2023-03-12T05:15:29.928Z,95.40
2023-03-12T05:16:02.652Z,95.40
2023-03-12T05:16:35.371Z,95.40
2023-03-12T05:17:08.010Z,95.40
2023-03-12T05:17:40.696Z,95.50
2023-03-12T05:18:13.385Z,95.50
2023-03-12T05:18:46.056Z,95.50
2023-03-12T05:19:18.735Z,95.61
2023-03-12T05:19:51.423Z,95.72
2023-03-12T05:20:24.095Z,95.72
2023-03-12T05:20:56.781Z,95.72
2023-03-12T05:21:29.440Z,95.72
2023-03-12T05:22:02.104Z,95.72
2023-03-12T05:22:34.806Z,95.82
2023-03-12T05:23:07.516Z,95.92
2023-03-12T05:23:40.158Z,95.92
2023-03-12T05:24:12.832Z,95.92
2023-03-12T05:24:45.521Z,95.92
2023-03-12T05:25:18.183Z,96.03
2023-03-12T05:25:50.847Z,96.03
2023-03-12T05:26:23.530Z,96.03
2023-03-12T05:26:56.199Z,95.92
2023-03-12T05:27:31.538Z,96.03
2023-03-12T05:27:58.037Z,96.03
2023-03-12T05:28:30.699Z,96.03
2023-03-12T05:29:03.366Z,96.03
2023-03-12T05:29:36.049Z,96.03
2023-03-12T05:30:08.710Z,96.03
2023-03-12T05:30:41.385Z,96.03
2023-03-12T05:31:14.136Z,96.03
2023-03-12T05:31:46.838Z,96.13
2023-03-12T05:32:19.516Z,96.13
2023-03-12T05:32:52.242Z,96.13
2023-03-12T05:33:24.906Z,96.13
2023-03-12T05:33:57.576Z,96.13
2023-03-12T05:34:30.241Z,96.13
2023-03-12T05:35:02.915Z,96.13
2023-03-12T05:35:35.647Z,96.24
2023-03-12T05:36:08.325Z,96.24
2023-03-12T05:36:40.970Z,96.24
2023-03-12T05:37:13.640Z,96.34
2023-03-12T05:37:46.345Z,96.34
2023-03-12T05:38:19.021Z,96.34
2023-03-12T05:38:51.682Z,96.28
2023-03-12T05:39:24.355Z,96.24
2023-03-12T05:39:55.431Z,96.28
2023-03-12T05:40:28.102Z,96.24
2023-03-12T05:41:00.774Z,96.28
2023-03-12T05:41:33.442Z,96.24
2023-03-12T05:42:06.126Z,96.28
2023-03-12T05:42:38.829Z,96.39
2023-03-12T05:43:11.528Z,96.39
2023-03-12T05:43:44.190Z,96.39
2023-03-12T05:44:16.863Z,96.39
2023-03-12T05:44:49.532Z,96.39
2023-03-12T05:45:22.228Z,96.49
2023-03-12T05:45:55.067Z,96.49
2023-03-12T05:46:27.790Z,96.49
2023-03-12T05:47:00.470Z,96.59
2023-03-12T05:47:33.112Z,96.59
2023-03-12T05:48:05.791Z,96.70
2023-03-12T05:48:38.480Z,96.70
2023-03-12T05:49:11.160Z,96.70
2023-03-12T05:49:43.822Z,96.70
2023-03-12T05:50:16.486Z,96.81
2023-03-12T05:50:49.164Z,96.81
2023-03-12T05:51:21.822Z,96.81
2023-03-12T05:51:54.488Z,96.91
2023-03-12T05:52:27.159Z,96.91
2023-03-12T05:52:59.941Z,96.91
2023-03-12T05:53:32.607Z,97.02
2023-03-12T05:54:05.250Z,97.02
2023-03-12T05:54:37.923Z,97.12
2023-03-12T05:55:10.584Z,97.12
2023-03-12T05:55:43.259Z,97.12
2023-03-12T05:56:15.943Z,97.23
2023-03-12T05:56:48.603Z,97.23
2023-03-12T05:57:21.272Z,97.23
2023-03-12T05:57:53.957Z,97.33
2023-03-12T05:58:26.616Z,97.33
2023-03-12T05:58:59.299Z,97.33
2023-03-12T05:59:31.993Z,97.33
2023-03-12T06:00:04.676Z,97.33
2023-03-12T06:00:35.758Z,97.29
2023-03-12T06:01:08.427Z,97.33
2023-03-12T06:01:41.102Z,97.23
2023-03-12T06:02:13.854Z,97.08
2023-03-12T06:02:46.541Z,97.08
2023-03-12T06:03:17.685Z,97.18
2023-03-12T06:03:50.458Z,97.18
2023-03-12T06:04:23.107Z,97.18
2023-03-12T06:04:55.772Z,97.29
2023-03-12T06:05:28.457Z,97.29
2023-03-12T06:06:01.111Z,97.29
2023-03-12T06:06:33.783Z,97.29
2023-03-12T06:07:06.483Z,97.18
2023-03-12T06:07:39.133Z,97.18
2023-03-12T06:08:11.805Z,97.18
2023-03-12T06:08:44.501Z,97.08
2023-03-12T06:09:17.154Z,97.08
2023-03-12T06:09:49.820Z,96.97
2023-03-12T06:10:22.493Z,96.97
2023-03-12T06:10:55.168Z,96.97
2023-03-12T06:11:27.844Z,97.08
2023-03-12T06:12:00.516Z,97.08
2023-03-12T06:12:33.164Z,97.03
2023-03-12T06:13:05.852Z,96.93
2023-03-12T06:13:38.553Z,96.93
2023-03-12T06:14:11.233Z,96.93
2023-03-12T06:14:43.912Z,96.93
2023-03-12T06:15:16.586Z,96.83
2023-03-12T06:15:49.251Z,96.83
2023-03-12T06:16:21.990Z,96.72
2023-03-12T06:16:54.745Z,96.72
2023-03-12T06:17:27.402Z,96.61
2023-03-12T06:18:00.124Z,96.51
2023-03-12T06:18:32.771Z,96.51
2023-03-12T06:19:05.455Z,96.36
2023-03-12T06:19:38.124Z,96.36
2023-03-12T06:20:10.789Z,96.25
2023-03-12T06:20:43.481Z,96.25
2023-03-12T06:21:16.138Z,96.25
2023-03-12T06:21:48.825Z,96.04
2023-03-12T06:22:21.493Z,95.84
2023-03-12T06:22:54.191Z,95.31
2023-03-12T06:23:26.863Z,95.10
2023-03-12T06:23:59.551Z,95.00
2023-03-12T06:24:32.204Z,95.00
2023-03-12T06:25:04.872Z,94.89
2023-03-12T06:25:37.560Z,94.89
2023-03-12T06:26:10.233Z,94.89
2023-03-12T06:26:42.893Z,94.74
2023-03-12T06:27:15.558Z,94.74
2023-03-12T06:27:48.261Z,94.74
2023-03-12T06:28:20.923Z,94.54
2023-03-12T06:28:53.596Z,94.32
2023-03-12T06:29:26.283Z,94.12
2023-03-12T06:29:58.935Z,94.01
2023-03-12T06:30:31.611Z,93.91
2023-03-12T06:31:04.346Z,93.80
2023-03-12T06:31:38.845Z,93.80
2023-03-12T06:32:05.188Z,93.65
2023-03-12T06:32:37.944Z,93.76
2023-03-12T06:33:10.664Z,93.76
2023-03-12T06:33:43.327Z,93.76
2023-03-12T06:34:16.021Z,93.76
2023-03-12T06:34:48.676Z,93.76
2023-03-12T06:35:21.392Z,93.76
2023-03-12T06:35:54.117Z,93.76
2023-03-12T06:36:26.776Z,93.65
2023-03-12T06:36:59.444Z,93.24
2023-03-12T06:37:32.134Z,92.88
2023-03-12T06:38:04.801Z,92.67
2023-03-12T06:38:37.465Z,92.67
2023-03-12T06:39:10.182Z,92.67
2023-03-12T06:39:42.828Z,92.67
2023-03-12T06:40:15.486Z,92.77
2023-03-12T06:40:48.202Z,92.77
2023-03-12T06:41:20.854Z,92.77
2023-03-12T06:41:53.519Z,92.67
2023-03-12T06:42:26.318Z,92.35
2023-03-12T06:42:59.007Z,91.89
2023-03-12T06:43:31.657Z,91.58
2023-03-12T06:44:04.331Z,91.47
2023-03-12T06:44:36.999Z,91.37
2023-03-12T06:45:09.675Z,91.37
2023-03-12T06:45:42.357Z,91.37
2023-03-12T06:46:15.108Z,91.37
2023-03-12T06:46:47.982Z,91.47
2023-03-12T06:47:20.689Z,91.16
2023-03-12T06:47:53.377Z,90.84
2023-03-12T06:48:26.073Z,90.64
2023-03-12T06:48:58.725Z,90.64
2023-03-12T06:49:31.399Z,90.81
2023-03-12T06:50:04.070Z,90.81
2023-03-12T06:50:36.742Z,90.91
2023-03-12T06:51:09.458Z,90.49
2023-03-12T06:51:42.100Z,90.18
2023-03-12T06:52:14.759Z,89.97
2023-03-12T06:52:47.436Z,89.97
2023-03-12T06:53:20.088Z,90.18
2023-03-12T06:53:52.752Z,90.28
2023-03-12T06:54:25.467Z,89.86
2023-03-12T06:54:58.121Z,89.65
2023-03-12T06:55:30.782Z,89.51
2023-03-12T06:56:03.466Z,89.40
2023-03-12T06:56:36.136Z,89.51
2023-03-12T06:57:08.795Z,89.61
2023-03-12T06:57:41.500Z,89.72
2023-03-12T06:58:14.156Z,89.72
2023-03-12T06:58:46.835Z,89.58
2023-03-12T06:59:19.512Z,89.36
2023-03-12T06:59:52.192Z,89.05
2023-03-12T07:00:24.879Z,88.84